sensor_id;sensor_type;location;lat;lon;timestamp;P1;durP1;ratioP1;P2;durP2;ratioP2
10009;SDS011;5044;48.652;9.250;2022-10-16T00:00:45;1.17;;;0.80;;
10009;SDS011;5044;48.652;9.250;2022-10-16T00:03:12;1.42;;;0.88;;
10009;SDS011;5044;48.652;9.250;2022-10-16T00:05:39;1.00;;;0.75;;
10009;SDS011;5044;48.652;9.250;2022-10-16T00:08:08;1.38;;;0.90;;
10009;SDS011;5044;48.652;9.250;2022-10-16T00:10:35;1.38;;;0.70;;
10009;SDS011;5044;48.652;9.250;2022-10-16T00:13:04;1.23;;;0.73;;
10009;SDS011;5044;48.652;9.250;2022-10-16T00:15:32;3.67;;;1.00;;
10009;SDS011;5044;48.652;9.250;2022-10-16T00:18:01;1.52;;;1.02;;
10009;SDS011;5044;48.652;9.250;2022-10-16T00:20:28;1.08;;;0.90;;
10009;SDS011;5044;48.652;9.250;2022-10-16T00:22:56;1.70;;;0.95;;
10009;SDS011;5044;48.652;9.250;2022-10-16T00:25:23;1.02;;;0.82;;
10009;SDS011;5044;48.652;9.250;2022-10-16T00:27:50;0.90;;;0.80;;
10009;SDS011;5044;48.652;9.250;2022-10-16T00:30:18;2.50;;;0.90;;
10009;SDS011;5044;48.652;9.250;2022-10-16T00:32:46;1.42;;;1.00;;
10009;SDS011;5044;48.652;9.250;2022-10-16T00:35:13;1.25;;;0.55;;
10009;SDS011;5044;48.652;9.250;2022-10-16T00:37:40;1.38;;;0.88;;
10009;SDS011;5044;48.652;9.250;2022-10-16T00:40:07;1.48;;;1.02;;
10009;SDS011;5044;48.652;9.250;2022-10-16T00:42:35;0.88;;;0.80;;
10009;SDS011;5044;48.652;9.250;2022-10-16T00:45:02;1.63;;;1.00;;
10009;SDS011;5044;48.652;9.250;2022-10-16T00:47:32;1.45;;;1.00;;
10009;SDS011;5044;48.652;9.250;2022-10-16T00:50:04;3.17;;;1.02;;
10009;SDS011;5044;48.652;9.250;2022-10-16T00:52:35;2.20;;;1.25;;
10009;SDS011;5044;48.652;9.250;2022-10-16T00:55:03;1.42;;;0.90;;
10009;SDS011;5044;48.652;9.250;2022-10-16T00:57:32;4.45;;;0.88;;
10009;SDS011;5044;48.652;9.250;2022-10-16T00:59:59;2.38;;;0.95;;
10009;SDS011;5044;48.652;9.250;2022-10-16T01:02:27;4.10;;;1.05;;
10009;SDS011;5044;48.652;9.250;2022-10-16T01:04:56;1.52;;;1.00;;
10009;SDS011;5044;48.652;9.250;2022-10-16T01:07:27;2.33;;;0.85;;
10009;SDS011;5044;48.652;9.250;2022-10-16T01:10:06;1.15;;;0.73;;
10009;SDS011;5044;48.652;9.250;2022-10-16T01:12:41;1.25;;;0.73;;
10009;SDS011;5044;48.652;9.250;2022-10-16T01:15:14;1.55;;;0.98;;
10009;SDS011;5044;48.652;9.250;2022-10-16T01:17:48;1.13;;;0.70;;
10009;SDS011;5044;48.652;9.250;2022-10-16T01:20:23;1.90;;;1.05;;
10009;SDS011;5044;48.652;9.250;2022-10-16T01:22:59;1.52;;;0.90;;
10009;SDS011;5044;48.652;9.250;2022-10-16T01:25:37;3.03;;;1.13;;
10009;SDS011;5044;48.652;9.250;2022-10-16T01:28:20;1.10;;;0.80;;
10009;SDS011;5044;48.652;9.250;2022-10-16T01:30:52;3.00;;;1.30;;
10009;SDS011;5044;48.652;9.250;2022-10-16T01:33:24;3.63;;;1.20;;
10009;SDS011;5044;48.652;9.250;2022-10-16T01:35:58;2.90;;;0.80;;
10009;SDS011;5044;48.652;9.250;2022-10-16T01:38:29;1.13;;;0.70;;
10009;SDS011;5044;48.652;9.250;2022-10-16T01:41:00;1.80;;;0.73;;
10009;SDS011;5044;48.652;9.250;2022-10-16T01:43:35;4.30;;;0.93;;
10009;SDS011;5044;48.652;9.250;2022-10-16T01:46:05;1.10;;;0.77;;
10009;SDS011;5044;48.652;9.250;2022-10-16T01:48:34;1.40;;;0.95;;
10009;SDS011;5044;48.652;9.250;2022-10-16T01:51:03;2.13;;;1.13;;
10009;SDS011;5044;48.652;9.250;2022-10-16T01:53:33;3.10;;;0.82;;
10009;SDS011;5044;48.652;9.250;2022-10-16T01:56:00;1.85;;;0.80;;
10009;SDS011;5044;48.652;9.250;2022-10-16T01:58:30;1.02;;;0.75;;
10009;SDS011;5044;48.652;9.250;2022-10-16T02:01:04;2.83;;;1.27;;
10009;SDS011;5044;48.652;9.250;2022-10-16T02:03:35;1.23;;;0.80;;
10009;SDS011;5044;48.652;9.250;2022-10-16T02:06:06;0.90;;;0.70;;
10009;SDS011;5044;48.652;9.250;2022-10-16T02:08:34;1.10;;;0.70;;
10009;SDS011;5044;48.652;9.250;2022-10-16T02:11:02;1.60;;;1.00;;
10009;SDS011;5044;48.652;9.250;2022-10-16T02:13:30;1.48;;;1.00;;
10009;SDS011;5044;48.652;9.250;2022-10-16T02:16:05;2.60;;;0.90;;
10009;SDS011;5044;48.652;9.250;2022-10-16T02:18:33;1.83;;;0.95;;
10009;SDS011;5044;48.652;9.250;2022-10-16T02:21:02;1.52;;;0.85;;
10009;SDS011;5044;48.652;9.250;2022-10-16T02:23:42;2.63;;;0.80;;
10009;SDS011;5044;48.652;9.250;2022-10-16T02:26:15;1.90;;;0.85;;
10009;SDS011;5044;48.652;9.250;2022-10-16T02:28:51;1.52;;;1.00;;
10009;SDS011;5044;48.652;9.250;2022-10-16T02:31:26;1.40;;;0.88;;
10009;SDS011;5044;48.652;9.250;2022-10-16T02:33:55;1.30;;;0.75;;
10009;SDS011;5044;48.652;9.250;2022-10-16T02:36:25;1.45;;;0.98;;
10009;SDS011;5044;48.652;9.250;2022-10-16T02:38:53;1.77;;;1.17;;
10009;SDS011;5044;48.652;9.250;2022-10-16T02:41:20;3.92;;;1.58;;
10009;SDS011;5044;48.652;9.250;2022-10-16T02:43:48;1.00;;;0.90;;
10009;SDS011;5044;48.652;9.250;2022-10-16T02:46:15;2.42;;;1.50;;
10009;SDS011;5044;48.652;9.250;2022-10-16T02:48:46;1.40;;;1.00;;
10009;SDS011;5044;48.652;9.250;2022-10-16T02:51:13;1.73;;;1.00;;
10009;SDS011;5044;48.652;9.250;2022-10-16T02:53:40;2.78;;;0.98;;
10009;SDS011;5044;48.652;9.250;2022-10-16T02:56:07;1.13;;;1.02;;
10009;SDS011;5044;48.652;9.250;2022-10-16T02:58:34;2.05;;;1.15;;
10009;SDS011;5044;48.652;9.250;2022-10-16T03:01:01;5.45;;;1.50;;
10009;SDS011;5044;48.652;9.250;2022-10-16T03:03:30;3.17;;;1.77;;
10009;SDS011;5044;48.652;9.250;2022-10-16T03:05:58;3.05;;;0.95;;
10009;SDS011;5044;48.652;9.250;2022-10-16T03:08:26;2.92;;;1.02;;
10009;SDS011;5044;48.652;9.250;2022-10-16T03:10:53;1.30;;;0.80;;
10009;SDS011;5044;48.652;9.250;2022-10-16T03:13:20;3.45;;;1.05;;
10009;SDS011;5044;48.652;9.250;2022-10-16T03:15:47;3.15;;;1.00;;
10009;SDS011;5044;48.652;9.250;2022-10-16T03:18:14;1.20;;;0.98;;
10009;SDS011;5044;48.652;9.250;2022-10-16T03:20:42;3.72;;;1.00;;
10009;SDS011;5044;48.652;9.250;2022-10-16T03:23:10;1.30;;;0.90;;
10009;SDS011;5044;48.652;9.250;2022-10-16T03:25:37;2.85;;;0.85;;
10009;SDS011;5044;48.652;9.250;2022-10-16T03:28:04;4.00;;;0.60;;
10009;SDS011;5044;48.652;9.250;2022-10-16T03:30:32;1.23;;;0.70;;
10009;SDS011;5044;48.652;9.250;2022-10-16T03:32:59;3.03;;;0.93;;
10009;SDS011;5044;48.652;9.250;2022-10-16T03:35:29;1.40;;;0.90;;
10009;SDS011;5044;48.652;9.250;2022-10-16T03:37:55;1.50;;;0.60;;
10009;SDS011;5044;48.652;9.250;2022-10-16T03:40:24;1.02;;;0.60;;
10009;SDS011;5044;48.652;9.250;2022-10-16T03:42:51;6.40;;;0.90;;
10009;SDS011;5044;48.652;9.250;2022-10-16T03:45:20;1.08;;;0.60;;
10009;SDS011;5044;48.652;9.250;2022-10-16T03:47:47;4.72;;;0.80;;
10009;SDS011;5044;48.652;9.250;2022-10-16T03:50:14;1.67;;;0.82;;
10009;SDS011;5044;48.652;9.250;2022-10-16T03:52:41;1.10;;;0.60;;
10009;SDS011;5044;48.652;9.250;2022-10-16T03:55:09;3.22;;;0.77;;
10009;SDS011;5044;48.652;9.250;2022-10-16T03:57:37;0.98;;;0.70;;
10009;SDS011;5044;48.652;9.250;2022-10-16T04:00:06;3.20;;;0.70;;
10009;SDS011;5044;48.652;9.250;2022-10-16T04:02:35;2.75;;;0.80;;
10009;SDS011;5044;48.652;9.250;2022-10-16T04:05:02;1.05;;;0.70;;
10009;SDS011;5044;48.652;9.250;2022-10-16T04:07:30;1.52;;;0.90;;
10009;SDS011;5044;48.652;9.250;2022-10-16T04:09:57;3.72;;;0.70;;
10009;SDS011;5044;48.652;9.250;2022-10-16T04:12:25;0.90;;;0.63;;
10009;SDS011;5044;48.652;9.250;2022-10-16T04:14:54;2.92;;;0.70;;
10009;SDS011;5044;48.652;9.250;2022-10-16T04:17:22;0.77;;;0.45;;
10009;SDS011;5044;48.652;9.250;2022-10-16T04:19:49;1.15;;;0.63;;
10009;SDS011;5044;48.652;9.250;2022-10-16T04:22:16;1.08;;;0.73;;
10009;SDS011;5044;48.652;9.250;2022-10-16T04:24:43;1.80;;;0.60;;
10009;SDS011;5044;48.652;9.250;2022-10-16T04:27:10;1.05;;;0.50;;
10009;SDS011;5044;48.652;9.250;2022-10-16T04:29:37;1.77;;;0.88;;
10009;SDS011;5044;48.652;9.250;2022-10-16T04:32:06;1.67;;;0.90;;
10009;SDS011;5044;48.652;9.250;2022-10-16T04:34:35;1.53;;;0.93;;
10009;SDS011;5044;48.652;9.250;2022-10-16T04:37:03;1.17;;;0.77;;
10009;SDS011;5044;48.652;9.250;2022-10-16T04:39:30;1.33;;;1.10;;
10009;SDS011;5044;48.652;9.250;2022-10-16T04:41:57;1.73;;;1.30;;
10009;SDS011;5044;48.652;9.250;2022-10-16T04:44:24;2.42;;;1.08;;
10009;SDS011;5044;48.652;9.250;2022-10-16T04:46:51;2.88;;;1.00;;
10009;SDS011;5044;48.652;9.250;2022-10-16T04:49:20;2.17;;;0.90;;
10009;SDS011;5044;48.652;9.250;2022-10-16T04:51:47;1.13;;;0.80;;
10009;SDS011;5044;48.652;9.250;2022-10-16T04:54:14;1.73;;;0.88;;
10009;SDS011;5044;48.652;9.250;2022-10-16T04:56:41;0.90;;;0.90;;
10009;SDS011;5044;48.652;9.250;2022-10-16T04:59:12;1.35;;;0.80;;
10009;SDS011;5044;48.652;9.250;2022-10-16T05:01:40;1.10;;;0.65;;
10009;SDS011;5044;48.652;9.250;2022-10-16T05:04:08;1.15;;;0.57;;
10009;SDS011;5044;48.652;9.250;2022-10-16T05:06:37;4.43;;;1.05;;
10009;SDS011;5044;48.652;9.250;2022-10-16T05:09:06;3.53;;;0.70;;
10009;SDS011;5044;48.652;9.250;2022-10-16T05:11:33;2.85;;;0.82;;
10009;SDS011;5044;48.652;9.250;2022-10-16T05:14:01;1.40;;;0.90;;
10009;SDS011;5044;48.652;9.250;2022-10-16T05:16:28;4.88;;;1.20;;
10009;SDS011;5044;48.652;9.250;2022-10-16T05:18:56;2.10;;;0.88;;
10009;SDS011;5044;48.652;9.250;2022-10-16T05:21:24;6.38;;;1.00;;
10009;SDS011;5044;48.652;9.250;2022-10-16T05:23:53;3.65;;;0.73;;
10009;SDS011;5044;48.652;9.250;2022-10-16T05:26:21;1.20;;;0.90;;
10009;SDS011;5044;48.652;9.250;2022-10-16T05:28:48;2.35;;;0.80;;
10009;SDS011;5044;48.652;9.250;2022-10-16T05:31:16;1.20;;;0.88;;
10009;SDS011;5044;48.652;9.250;2022-10-16T05:33:45;1.75;;;1.08;;
10009;SDS011;5044;48.652;9.250;2022-10-16T05:36:12;0.82;;;0.57;;
10009;SDS011;5044;48.652;9.250;2022-10-16T05:38:39;2.22;;;0.70;;
10009;SDS011;5044;48.652;9.250;2022-10-16T05:41:10;3.10;;;0.80;;
10009;SDS011;5044;48.652;9.250;2022-10-16T05:43:37;0.75;;;0.60;;
10009;SDS011;5044;48.652;9.250;2022-10-16T05:46:05;2.95;;;0.68;;
10009;SDS011;5044;48.652;9.250;2022-10-16T05:48:32;1.75;;;0.82;;
10009;SDS011;5044;48.652;9.250;2022-10-16T05:50:59;1.42;;;0.73;;
10009;SDS011;5044;48.652;9.250;2022-10-16T05:53:28;2.42;;;0.80;;
10009;SDS011;5044;48.652;9.250;2022-10-16T05:55:56;1.48;;;0.57;;
10009;SDS011;5044;48.652;9.250;2022-10-16T05:58:25;0.65;;;0.57;;
10009;SDS011;5044;48.652;9.250;2022-10-16T06:03:22;4.50;;;1.58;;
10009;SDS011;5044;48.652;9.250;2022-10-16T06:05:50;0.70;;;0.60;;
10009;SDS011;5044;48.652;9.250;2022-10-16T06:08:17;1.67;;;1.00;;
10009;SDS011;5044;48.652;9.250;2022-10-16T06:10:45;4.00;;;2.20;;
10009;SDS011;5044;48.652;9.250;2022-10-16T06:13:13;3.83;;;2.17;;
10009;SDS011;5044;48.652;9.250;2022-10-16T06:15:42;8.90;;;3.42;;
10009;SDS011;5044;48.652;9.250;2022-10-16T06:18:10;13.02;;;5.18;;
10009;SDS011;5044;48.652;9.250;2022-10-16T06:20:37;12.77;;;4.80;;
10009;SDS011;5044;48.652;9.250;2022-10-16T06:23:05;7.93;;;3.90;;
10009;SDS011;5044;48.652;9.250;2022-10-16T06:25:32;15.93;;;4.90;;
10009;SDS011;5044;48.652;9.250;2022-10-16T06:27:59;11.95;;;4.35;;
10009;SDS011;5044;48.652;9.250;2022-10-16T06:30:27;6.95;;;3.13;;
10009;SDS011;5044;48.652;9.250;2022-10-16T06:32:57;8.63;;;3.08;;
10009;SDS011;5044;48.652;9.250;2022-10-16T06:35:24;6.45;;;2.28;;
10009;SDS011;5044;48.652;9.250;2022-10-16T06:37:52;3.42;;;1.80;;
10009;SDS011;5044;48.652;9.250;2022-10-16T06:40:19;4.05;;;1.63;;
10009;SDS011;5044;48.652;9.250;2022-10-16T06:42:46;2.80;;;1.33;;
10009;SDS011;5044;48.652;9.250;2022-10-16T06:45:13;1.50;;;1.10;;
10009;SDS011;5044;48.652;9.250;2022-10-16T06:47:40;5.03;;;1.40;;
10009;SDS011;5044;48.652;9.250;2022-10-16T06:50:09;1.67;;;1.20;;
10009;SDS011;5044;48.652;9.250;2022-10-16T06:52:36;1.83;;;1.30;;
10009;SDS011;5044;48.652;9.250;2022-10-16T06:55:03;1.58;;;1.13;;
10009;SDS011;5044;48.652;9.250;2022-10-16T06:57:31;1.42;;;1.00;;
10009;SDS011;5044;48.652;9.250;2022-10-16T06:59:58;1.80;;;0.80;;
10009;SDS011;5044;48.652;9.250;2022-10-16T07:02:26;2.15;;;1.10;;
10009;SDS011;5044;48.652;9.250;2022-10-16T07:04:53;1.15;;;0.70;;
10009;SDS011;5044;48.652;9.250;2022-10-16T07:07:23;2.03;;;1.02;;
10009;SDS011;5044;48.652;9.250;2022-10-16T07:09:51;2.13;;;0.77;;
10009;SDS011;5044;48.652;9.250;2022-10-16T07:12:18;5.78;;;1.05;;
10009;SDS011;5044;48.652;9.250;2022-10-16T07:14:45;5.57;;;1.00;;
10009;SDS011;5044;48.652;9.250;2022-10-16T07:17:12;2.47;;;1.00;;
10009;SDS011;5044;48.652;9.250;2022-10-16T07:19:39;1.35;;;0.90;;
10009;SDS011;5044;48.652;9.250;2022-10-16T07:22:06;1.20;;;0.75;;
10009;SDS011;5044;48.652;9.250;2022-10-16T07:24:35;4.50;;;0.90;;
10009;SDS011;5044;48.652;9.250;2022-10-16T07:27:02;1.65;;;1.00;;
10009;SDS011;5044;48.652;9.250;2022-10-16T07:29:30;5.80;;;1.13;;
10009;SDS011;5044;48.652;9.250;2022-10-16T07:31:57;1.98;;;0.80;;
10009;SDS011;5044;48.652;9.250;2022-10-16T07:34:24;1.15;;;1.02;;
10009;SDS011;5044;48.652;9.250;2022-10-16T07:36:52;1.30;;;1.00;;
10009;SDS011;5044;48.652;9.250;2022-10-16T07:39:19;2.05;;;0.85;;
10009;SDS011;5044;48.652;9.250;2022-10-16T07:41:48;1.63;;;1.13;;
10009;SDS011;5044;48.652;9.250;2022-10-16T07:44:15;2.30;;;1.20;;
10009;SDS011;5044;48.652;9.250;2022-10-16T07:46:42;1.30;;;0.90;;
10009;SDS011;5044;48.652;9.250;2022-10-16T07:49:09;5.15;;;1.65;;
10009;SDS011;5044;48.652;9.250;2022-10-16T07:51:36;4.10;;;0.73;;
10009;SDS011;5044;48.652;9.250;2022-10-16T07:54:04;0.98;;;0.65;;
10009;SDS011;5044;48.652;9.250;2022-10-16T07:56:31;1.27;;;0.90;;
10009;SDS011;5044;48.652;9.250;2022-10-16T07:59:00;2.05;;;1.08;;
10009;SDS011;5044;48.652;9.250;2022-10-16T08:01:27;2.25;;;1.10;;
10009;SDS011;5044;48.652;9.250;2022-10-16T08:03:54;2.75;;;0.70;;
10009;SDS011;5044;48.652;9.250;2022-10-16T08:06:21;2.50;;;0.98;;
10009;SDS011;5044;48.652;9.250;2022-10-16T08:08:49;2.03;;;0.90;;
10009;SDS011;5044;48.652;9.250;2022-10-16T08:11:17;1.73;;;0.85;;
10009;SDS011;5044;48.652;9.250;2022-10-16T08:13:44;1.83;;;0.90;;
10009;SDS011;5044;48.652;9.250;2022-10-16T08:16:14;3.08;;;1.08;;
10009;SDS011;5044;48.652;9.250;2022-10-16T08:18:42;1.50;;;1.27;;
10009;SDS011;5044;48.652;9.250;2022-10-16T08:21:12;1.88;;;1.13;;
10009;SDS011;5044;48.652;9.250;2022-10-16T08:26:11;3.35;;;1.10;;
10009;SDS011;5044;48.652;9.250;2022-10-16T08:28:39;3.13;;;1.00;;
10009;SDS011;5044;48.652;9.250;2022-10-16T08:31:07;1.23;;;1.00;;
10009;SDS011;5044;48.652;9.250;2022-10-16T08:33:37;4.55;;;1.08;;
10009;SDS011;5044;48.652;9.250;2022-10-16T08:36:05;2.15;;;1.30;;
10009;SDS011;5044;48.652;9.250;2022-10-16T08:38:32;1.52;;;0.85;;
10009;SDS011;5044;48.652;9.250;2022-10-16T08:41:04;6.32;;;1.05;;
10009;SDS011;5044;48.652;9.250;2022-10-16T08:43:55;1.77;;;1.10;;
10009;SDS011;5044;48.652;9.250;2022-10-16T08:46:40;3.45;;;1.00;;
10009;SDS011;5044;48.652;9.250;2022-10-16T08:49:14;1.25;;;0.90;;
10009;SDS011;5044;48.652;9.250;2022-10-16T08:51:42;1.83;;;0.70;;
10009;SDS011;5044;48.652;9.250;2022-10-16T08:54:15;6.13;;;0.70;;
10009;SDS011;5044;48.652;9.250;2022-10-16T08:56:53;3.00;;;0.88;;
10009;SDS011;5044;48.652;9.250;2022-10-16T08:59:21;1.55;;;1.00;;
10009;SDS011;5044;48.652;9.250;2022-10-16T09:01:49;1.77;;;0.80;;
10009;SDS011;5044;48.652;9.250;2022-10-16T09:04:40;4.40;;;1.98;;
10009;SDS011;5044;48.652;9.250;2022-10-16T09:07:32;1.92;;;1.20;;
10009;SDS011;5044;48.652;9.250;2022-10-16T09:10:11;5.68;;;1.65;;
10009;SDS011;5044;48.652;9.250;2022-10-16T09:12:52;1.58;;;0.98;;
10009;SDS011;5044;48.652;9.250;2022-10-16T09:15:27;3.15;;;1.52;;
10009;SDS011;5044;48.652;9.250;2022-10-16T09:18:01;4.88;;;1.67;;
10009;SDS011;5044;48.652;9.250;2022-10-16T09:23:21;6.97;;;1.98;;
10009;SDS011;5044;48.652;9.250;2022-10-16T09:25:51;10.13;;;4.28;;
10009;SDS011;5044;48.652;9.250;2022-10-16T09:28:19;5.35;;;2.90;;
10009;SDS011;5044;48.652;9.250;2022-10-16T09:30:48;7.45;;;2.58;;
10009;SDS011;5044;48.652;9.250;2022-10-16T09:33:17;5.22;;;2.78;;
10009;SDS011;5044;48.652;9.250;2022-10-16T09:35:48;5.15;;;2.80;;
10009;SDS011;5044;48.652;9.250;2022-10-16T09:38:21;3.58;;;1.58;;
10009;SDS011;5044;48.652;9.250;2022-10-16T09:40:51;2.70;;;1.35;;
10009;SDS011;5044;48.652;9.250;2022-10-16T09:43:20;3.97;;;1.38;;
10009;SDS011;5044;48.652;9.250;2022-10-16T09:45:54;4.30;;;1.67;;
10009;SDS011;5044;48.652;9.250;2022-10-16T09:48:22;2.63;;;1.35;;
10009;SDS011;5044;48.652;9.250;2022-10-16T09:50:56;2.15;;;1.00;;
10009;SDS011;5044;48.652;9.250;2022-10-16T09:53:37;1.80;;;1.10;;
10009;SDS011;5044;48.652;9.250;2022-10-16T09:56:06;5.78;;;1.23;;
10009;SDS011;5044;48.652;9.250;2022-10-16T11:03:09;2.95;;;0.85;;
10009;SDS011;5044;48.652;9.250;2022-10-16T11:05:47;4.10;;;1.13;;
10009;SDS011;5044;48.652;9.250;2022-10-16T11:08:19;6.32;;;1.08;;
10009;SDS011;5044;48.652;9.250;2022-10-16T11:10:52;1.33;;;0.82;;
10009;SDS011;5044;48.652;9.250;2022-10-16T11:13:24;0.82;;;0.45;;
10009;SDS011;5044;48.652;9.250;2022-10-16T11:15:59;1.67;;;0.82;;
10009;SDS011;5044;48.652;9.250;2022-10-16T11:18:37;1.63;;;0.70;;
10009;SDS011;5044;48.652;9.250;2022-10-16T11:21:14;1.10;;;0.80;;
10009;SDS011;5044;48.652;9.250;2022-10-16T11:23:48;2.55;;;0.50;;
10009;SDS011;5044;48.652;9.250;2022-10-16T11:26:23;4.75;;;0.80;;
10009;SDS011;5044;48.652;9.250;2022-10-16T11:29:05;3.50;;;0.88;;
10009;SDS011;5044;48.652;9.250;2022-10-16T11:31:43;1.33;;;0.80;;
10009;SDS011;5044;48.652;9.250;2022-10-16T11:34:24;1.08;;;0.80;;
10009;SDS011;5044;48.652;9.250;2022-10-16T11:37:12;1.20;;;0.95;;
10009;SDS011;5044;48.652;9.250;2022-10-16T11:39:59;2.38;;;1.45;;
10009;SDS011;5044;48.652;9.250;2022-10-16T11:43:02;0.80;;;0.60;;
10009;SDS011;5044;48.652;9.250;2022-10-16T11:45:55;0.77;;;0.63;;
10009;SDS011;5044;48.652;9.250;2022-10-16T11:48:32;2.80;;;1.27;;
10009;SDS011;5044;48.652;9.250;2022-10-16T11:51:26;1.00;;;0.70;;
10009;SDS011;5044;48.652;9.250;2022-10-16T11:56:46;1.85;;;0.90;;
10009;SDS011;5044;48.652;9.250;2022-10-16T12:00:10;1.20;;;0.73;;
10009;SDS011;5044;48.652;9.250;2022-10-16T12:03:09;1.92;;;0.90;;
10009;SDS011;5044;48.652;9.250;2022-10-16T12:06:18;8.43;;;1.02;;
10009;SDS011;5044;48.652;9.250;2022-10-16T12:09:38;1.42;;;1.10;;
10009;SDS011;5044;48.652;9.250;2022-10-16T12:12:38;3.67;;;0.70;;
10009;SDS011;5044;48.652;9.250;2022-10-16T12:19:12;2.53;;;1.17;;
10009;SDS011;5044;48.652;9.250;2022-10-16T12:22:16;2.03;;;0.80;;
10009;SDS011;5044;48.652;9.250;2022-10-16T12:25:03;1.40;;;0.80;;
10009;SDS011;5044;48.652;9.250;2022-10-16T12:27:56;3.65;;;0.77;;
10009;SDS011;5044;48.652;9.250;2022-10-16T12:44:23;1.00;;;0.90;;
10009;SDS011;5044;48.652;9.250;2022-10-16T12:47:03;5.00;;;1.30;;
10009;SDS011;5044;48.652;9.250;2022-10-16T12:50:01;3.10;;;1.60;;
10009;SDS011;5044;48.652;9.250;2022-10-16T12:53:21;1.58;;;0.90;;
10009;SDS011;5044;48.652;9.250;2022-10-16T12:56:13;1.55;;;0.77;;
10009;SDS011;5044;48.652;9.250;2022-10-16T12:59:18;4.07;;;1.13;;
10009;SDS011;5044;48.652;9.250;2022-10-16T13:05:44;1.67;;;0.95;;
10009;SDS011;5044;48.652;9.250;2022-10-16T13:12:11;1.80;;;0.70;;
10009;SDS011;5044;48.652;9.250;2022-10-16T13:26:34;0.93;;;0.80;;
10009;SDS011;5044;48.652;9.250;2022-10-16T13:29:51;2.88;;;1.05;;
10009;SDS011;5044;48.652;9.250;2022-10-16T13:36:22;1.40;;;0.80;;
10009;SDS011;5044;48.652;9.250;2022-10-16T13:39:00;1.00;;;0.73;;
10009;SDS011;5044;48.652;9.250;2022-10-16T13:41:37;2.75;;;0.90;;
10009;SDS011;5044;48.652;9.250;2022-10-16T13:44:04;1.23;;;1.00;;
10009;SDS011;5044;48.652;9.250;2022-10-16T13:46:39;3.53;;;0.90;;
10009;SDS011;5044;48.652;9.250;2022-10-16T13:49:11;1.95;;;0.80;;
10009;SDS011;5044;48.652;9.250;2022-10-16T13:51:39;1.42;;;1.23;;
10009;SDS011;5044;48.652;9.250;2022-10-16T13:54:08;5.93;;;0.93;;
10009;SDS011;5044;48.652;9.250;2022-10-16T13:56:38;0.63;;;0.63;;
10009;SDS011;5044;48.652;9.250;2022-10-16T13:59:07;3.30;;;1.05;;
10009;SDS011;5044;48.652;9.250;2022-10-16T14:01:50;1.63;;;1.38;;
10009;SDS011;5044;48.652;9.250;2022-10-16T14:04:20;1.43;;;0.90;;
10009;SDS011;5044;48.652;9.250;2022-10-16T14:06:49;1.10;;;0.73;;
10009;SDS011;5044;48.652;9.250;2022-10-16T14:09:21;1.63;;;0.80;;
10009;SDS011;5044;48.652;9.250;2022-10-16T14:11:54;3.35;;;1.15;;
10009;SDS011;5044;48.652;9.250;2022-10-16T14:14:31;3.65;;;1.00;;
10009;SDS011;5044;48.652;9.250;2022-10-16T14:20:04;3.72;;;1.08;;
10009;SDS011;5044;48.652;9.250;2022-10-16T14:23:00;2.53;;;0.88;;
10009;SDS011;5044;48.652;9.250;2022-10-16T14:25:29;1.88;;;0.70;;
10009;SDS011;5044;48.652;9.250;2022-10-16T14:28:02;3.73;;;1.00;;
10009;SDS011;5044;48.652;9.250;2022-10-16T14:30:48;2.38;;;0.90;;
10009;SDS011;5044;48.652;9.250;2022-10-16T14:33:31;1.25;;;1.00;;
10009;SDS011;5044;48.652;9.250;2022-10-16T14:36:04;4.82;;;0.90;;
10009;SDS011;5044;48.652;9.250;2022-10-16T14:38:54;3.55;;;0.77;;
10009;SDS011;5044;48.652;9.250;2022-10-16T14:41:43;2.50;;;1.20;;
10009;SDS011;5044;48.652;9.250;2022-10-16T14:44:32;3.15;;;0.90;;
10009;SDS011;5044;48.652;9.250;2022-10-16T14:49:54;1.77;;;0.82;;
10009;SDS011;5044;48.652;9.250;2022-10-16T14:52:25;6.53;;;0.90;;
10009;SDS011;5044;48.652;9.250;2022-10-16T14:55:18;1.60;;;0.90;;
10009;SDS011;5044;48.652;9.250;2022-10-16T14:58:49;4.20;;;0.90;;
10009;SDS011;5044;48.652;9.250;2022-10-16T15:02:15;2.13;;;1.10;;
10009;SDS011;5044;48.652;9.250;2022-10-16T15:05:15;2.95;;;1.08;;
10009;SDS011;5044;48.652;9.250;2022-10-16T15:14:30;0.93;;;0.80;;
10009;SDS011;5044;48.652;9.250;2022-10-16T15:17:00;2.13;;;1.00;;
10009;SDS011;5044;48.652;9.250;2022-10-16T15:19:37;3.17;;;0.90;;
10009;SDS011;5044;48.652;9.250;2022-10-16T15:22:21;2.70;;;0.85;;
10009;SDS011;5044;48.652;9.250;2022-10-16T15:25:01;6.63;;;0.90;;
10009;SDS011;5044;48.652;9.250;2022-10-16T15:28:12;4.72;;;1.10;;
10009;SDS011;5044;48.652;9.250;2022-10-16T15:30:57;1.65;;;1.10;;
10009;SDS011;5044;48.652;9.250;2022-10-16T15:33:31;5.05;;;1.08;;
10009;SDS011;5044;48.652;9.250;2022-10-16T15:39:17;2.17;;;1.48;;
10009;SDS011;5044;48.652;9.250;2022-10-16T15:42:10;4.43;;;1.60;;
10009;SDS011;5044;48.652;9.250;2022-10-16T15:44:55;2.63;;;1.95;;
10009;SDS011;5044;48.652;9.250;2022-10-16T15:47:49;3.88;;;2.00;;
10009;SDS011;5044;48.652;9.250;2022-10-16T15:50:23;7.53;;;2.10;;
10009;SDS011;5044;48.652;9.250;2022-10-16T15:56:05;1.70;;;1.10;;
10009;SDS011;5044;48.652;9.250;2022-10-16T15:58:37;1.75;;;1.38;;
10009;SDS011;5044;48.652;9.250;2022-10-16T16:01:20;1.92;;;1.02;;
10009;SDS011;5044;48.652;9.250;2022-10-16T16:03:54;1.10;;;0.80;;
10009;SDS011;5044;48.652;9.250;2022-10-16T16:06:27;2.17;;;1.02;;
10009;SDS011;5044;48.652;9.250;2022-10-16T16:11:33;2.85;;;1.00;;
10009;SDS011;5044;48.652;9.250;2022-10-16T16:14:05;5.10;;;1.30;;
10009;SDS011;5044;48.652;9.250;2022-10-16T16:19:16;3.50;;;1.30;;
10009;SDS011;5044;48.652;9.250;2022-10-16T16:21:46;5.45;;;1.65;;
10009;SDS011;5044;48.652;9.250;2022-10-16T16:24:19;3.38;;;1.20;;
10009;SDS011;5044;48.652;9.250;2022-10-16T16:26:46;2.03;;;1.30;;
10009;SDS011;5044;48.652;9.250;2022-10-16T16:29:14;1.70;;;1.08;;
10009;SDS011;5044;48.652;9.250;2022-10-16T16:31:43;2.13;;;1.30;;
10009;SDS011;5044;48.652;9.250;2022-10-16T16:34:12;2.67;;;1.38;;
10009;SDS011;5044;48.652;9.250;2022-10-16T16:36:40;1.33;;;0.80;;
10009;SDS011;5044;48.652;9.250;2022-10-16T16:39:07;2.95;;;1.13;;
10009;SDS011;5044;48.652;9.250;2022-10-16T16:41:36;4.03;;;1.65;;
10009;SDS011;5044;48.652;9.250;2022-10-16T16:44:04;5.57;;;1.63;;
10009;SDS011;5044;48.652;9.250;2022-10-16T16:46:33;3.45;;;1.52;;
10009;SDS011;5044;48.652;9.250;2022-10-16T16:49:02;1.60;;;1.48;;
10009;SDS011;5044;48.652;9.250;2022-10-16T16:51:37;4.32;;;2.00;;
10009;SDS011;5044;48.652;9.250;2022-10-16T16:54:09;6.90;;;3.03;;
10009;SDS011;5044;48.652;9.250;2022-10-16T16:57:35;3.65;;;1.30;;
10009;SDS011;5044;48.652;9.250;2022-10-16T17:00:09;2.72;;;1.35;;
10009;SDS011;5044;48.652;9.250;2022-10-16T17:02:53;6.13;;;2.10;;
10009;SDS011;5044;48.652;9.250;2022-10-16T17:05:36;4.30;;;1.85;;
10009;SDS011;5044;48.652;9.250;2022-10-16T17:08:09;5.93;;;1.77;;
10009;SDS011;5044;48.652;9.250;2022-10-16T17:10:42;7.72;;;1.88;;
10009;SDS011;5044;48.652;9.250;2022-10-16T17:13:24;2.85;;;1.75;;
10009;SDS011;5044;48.652;9.250;2022-10-16T17:15:53;3.47;;;1.60;;
10009;SDS011;5044;48.652;9.250;2022-10-16T17:32:16;3.15;;;1.27;;
10009;SDS011;5044;48.652;9.250;2022-10-16T17:34:49;2.88;;;1.52;;
10009;SDS011;5044;48.652;9.250;2022-10-16T17:37:19;6.20;;;1.65;;
10009;SDS011;5044;48.652;9.250;2022-10-16T17:39:55;2.80;;;1.40;;
10009;SDS011;5044;48.652;9.250;2022-10-16T17:42:24;3.22;;;1.40;;
10009;SDS011;5044;48.652;9.250;2022-10-16T17:44:56;3.58;;;1.63;;
10009;SDS011;5044;48.652;9.250;2022-10-16T17:47:23;2.42;;;1.70;;
10009;SDS011;5044;48.652;9.250;2022-10-16T17:49:53;2.55;;;1.38;;
10009;SDS011;5044;48.652;9.250;2022-10-16T17:52:21;1.73;;;1.25;;
10009;SDS011;5044;48.652;9.250;2022-10-16T17:54:49;3.60;;;1.50;;
10009;SDS011;5044;48.652;9.250;2022-10-16T17:57:20;2.60;;;1.48;;
10009;SDS011;5044;48.652;9.250;2022-10-16T17:59:48;1.73;;;1.58;;
10009;SDS011;5044;48.652;9.250;2022-10-16T18:02:22;4.13;;;2.80;;
10009;SDS011;5044;48.652;9.250;2022-10-16T18:04:51;3.33;;;1.67;;
10009;SDS011;5044;48.652;9.250;2022-10-16T18:07:25;2.47;;;2.10;;
10009;SDS011;5044;48.652;9.250;2022-10-16T18:09:58;3.00;;;1.85;;